sensor_id;sensor_type;location;lat;lon;timestamp;P1;durP1;ratioP1;P2;durP2;ratioP2
23119;SDS011;11729;50.836;4.330;2022-11-09T00:00:49;12.73;;;5.95;;
23119;SDS011;11729;50.836;4.330;2022-11-09T00:03:14;12.32;;;6.22;;
23119;SDS011;11729;50.836;4.330;2022-11-09T00:05:40;10.90;;;6.03;;
23119;SDS011;11729;50.836;4.330;2022-11-09T00:08:07;10.70;;;5.75;;
23119;SDS011;11729;50.836;4.330;2022-11-09T00:10:33;8.55;;;5.80;;
23119;SDS011;11729;50.836;4.330;2022-11-09T00:12:59;11.95;;;6.05;;
23119;SDS011;11729;50.836;4.330;2022-11-09T00:15:25;14.02;;;6.20;;
23119;SDS011;11729;50.836;4.330;2022-11-09T00:17:51;12.13;;;6.13;;
23119;SDS011;11729;50.836;4.330;2022-11-09T00:20:17;9.95;;;5.93;;
23119;SDS011;11729;50.836;4.330;2022-11-09T00:22:45;13.43;;;6.22;;
23119;SDS011;11729;50.836;4.330;2022-11-09T00:25:12;10.27;;;6.15;;
23119;SDS011;11729;50.836;4.330;2022-11-09T00:27:38;12.43;;;6.55;;
23119;SDS011;11729;50.836;4.330;2022-11-09T00:30:04;11.60;;;6.40;;
23119;SDS011;11729;50.836;4.330;2022-11-09T00:32:31;10.43;;;6.43;;
23119;SDS011;11729;50.836;4.330;2022-11-09T00:34:57;14.23;;;6.30;;
23119;SDS011;11729;50.836;4.330;2022-11-09T00:37:23;9.98;;;5.82;;
23119;SDS011;11729;50.836;4.330;2022-11-09T00:39:49;13.30;;;6.35;;
23119;SDS011;11729;50.836;4.330;2022-11-09T00:42:14;19.15;;;6.35;;
23119;SDS011;11729;50.836;4.330;2022-11-09T00:44:40;15.65;;;7.03;;
23119;SDS011;11729;50.836;4.330;2022-11-09T00:47:06;17.10;;;6.80;;
23119;SDS011;11729;50.836;4.330;2022-11-09T00:49:31;17.20;;;6.70;;
23119;SDS011;11729;50.836;4.330;2022-11-09T00:51:57;13.27;;;6.88;;
23119;SDS011;11729;50.836;4.330;2022-11-09T00:54:22;14.90;;;6.45;;
23119;SDS011;11729;50.836;4.330;2022-11-09T00:56:48;13.07;;;6.32;;
23119;SDS011;11729;50.836;4.330;2022-11-09T00:59:14;12.70;;;6.45;;
23119;SDS011;11729;50.836;4.330;2022-11-09T01:01:39;14.38;;;6.32;;
23119;SDS011;11729;50.836;4.330;2022-11-09T01:04:05;19.27;;;7.00;;
23119;SDS011;11729;50.836;4.330;2022-11-09T01:08:59;12.40;;;6.88;;
23119;SDS011;11729;50.836;4.330;2022-11-09T01:11:24;13.00;;;6.47;;
23119;SDS011;11729;50.836;4.330;2022-11-09T01:13:50;11.52;;;6.65;;
23119;SDS011;11729;50.836;4.330;2022-11-09T01:16:18;14.93;;;6.70;;
23119;SDS011;11729;50.836;4.330;2022-11-09T01:23:39;15.63;;;6.47;;
23119;SDS011;11729;50.836;4.330;2022-11-09T01:26:09;16.00;;;6.72;;
23119;SDS011;11729;50.836;4.330;2022-11-09T01:28:36;12.88;;;6.85;;
23119;SDS011;11729;50.836;4.330;2022-11-09T01:31:03;13.43;;;6.40;;
23119;SDS011;11729;50.836;4.330;2022-11-09T01:33:31;14.25;;;6.85;;
23119;SDS011;11729;50.836;4.330;2022-11-09T01:36:03;22.55;;;7.70;;
23119;SDS011;11729;50.836;4.330;2022-11-09T01:38:31;16.52;;;8.40;;
23119;SDS011;11729;50.836;4.330;2022-11-09T01:40:57;21.02;;;9.73;;
23119;SDS011;11729;50.836;4.330;2022-11-09T01:43:23;18.83;;;10.32;;
23119;SDS011;11729;50.836;4.330;2022-11-09T01:46:00;21.95;;;9.73;;
23119;SDS011;11729;50.836;4.330;2022-11-09T01:48:35;22.55;;;9.57;;
23119;SDS011;11729;50.836;4.330;2022-11-09T01:51:18;22.60;;;9.95;;
23119;SDS011;11729;50.836;4.330;2022-11-09T01:54:03;20.02;;;9.38;;
23119;SDS011;11729;50.836;4.330;2022-11-09T01:56:34;22.90;;;9.20;;
23119;SDS011;11729;50.836;4.330;2022-11-09T01:59:04;21.10;;;9.43;;
23119;SDS011;11729;50.836;4.330;2022-11-09T02:01:34;17.60;;;9.18;;
23119;SDS011;11729;50.836;4.330;2022-11-09T02:04:01;26.80;;;9.07;;
23119;SDS011;11729;50.836;4.330;2022-11-09T02:06:34;17.83;;;8.60;;
23119;SDS011;11729;50.836;4.330;2022-11-09T02:09:03;15.65;;;9.20;;
23119;SDS011;11729;50.836;4.330;2022-11-09T02:11:36;19.42;;;8.27;;
23119;SDS011;11729;50.836;4.330;2022-11-09T02:14:02;17.23;;;8.13;;
23119;SDS011;11729;50.836;4.330;2022-11-09T02:16:30;22.88;;;8.57;;
23119;SDS011;11729;50.836;4.330;2022-11-09T02:18:57;16.27;;;7.40;;
23119;SDS011;11729;50.836;4.330;2022-11-09T02:23:54;18.08;;;7.47;;
23119;SDS011;11729;50.836;4.330;2022-11-09T02:27:03;14.73;;;7.55;;
23119;SDS011;11729;50.836;4.330;2022-11-09T02:29:12;15.77;;;7.40;;
23119;SDS011;11729;50.836;4.330;2022-11-09T02:31:59;17.27;;;8.27;;
23119;SDS011;11729;50.836;4.330;2022-11-09T02:34:28;17.20;;;8.30;;
23119;SDS011;11729;50.836;4.330;2022-11-09T02:36:53;17.80;;;7.70;;
23119;SDS011;11729;50.836;4.330;2022-11-09T02:39:19;20.92;;;8.52;;
23119;SDS011;11729;50.836;4.330;2022-11-09T02:44:23;25.42;;;9.38;;
23119;SDS011;11729;50.836;4.330;2022-11-09T02:46:50;22.38;;;9.80;;
23119;SDS011;11729;50.836;4.330;2022-11-09T02:49:15;20.83;;;9.57;;
23119;SDS011;11729;50.836;4.330;2022-11-09T02:51:41;19.42;;;9.48;;
23119;SDS011;11729;50.836;4.330;2022-11-09T02:54:07;24.55;;;10.45;;
23119;SDS011;11729;50.836;4.330;2022-11-09T02:56:32;21.33;;;9.85;;
23119;SDS011;11729;50.836;4.330;2022-11-09T02:58:58;20.45;;;9.25;;
23119;SDS011;11729;50.836;4.330;2022-11-09T03:01:23;22.48;;;9.77;;
23119;SDS011;11729;50.836;4.330;2022-11-09T03:03:49;19.42;;;8.75;;
23119;SDS011;11729;50.836;4.330;2022-11-09T03:06:15;24.88;;;8.65;;
23119;SDS011;11729;50.836;4.330;2022-11-09T03:08:41;16.73;;;7.85;;
23119;SDS011;11729;50.836;4.330;2022-11-09T03:11:07;16.33;;;7.60;;
23119;SDS011;11729;50.836;4.330;2022-11-09T03:13:33;20.75;;;7.53;;
23119;SDS011;11729;50.836;4.330;2022-11-09T03:16:02;20.00;;;7.22;;
23119;SDS011;11729;50.836;4.330;2022-11-09T03:18:29;17.80;;;7.00;;
23119;SDS011;11729;50.836;4.330;2022-11-09T03:20:59;19.05;;;6.93;;
23119;SDS011;11729;50.836;4.330;2022-11-09T03:23:26;19.25;;;6.90;;
23119;SDS011;11729;50.836;4.330;2022-11-09T03:25:51;19.05;;;6.93;;
23119;SDS011;11729;50.836;4.330;2022-11-09T03:28:17;15.23;;;6.57;;
23119;SDS011;11729;50.836;4.330;2022-11-09T03:30:42;13.52;;;6.32;;
23119;SDS011;11729;50.836;4.330;2022-11-09T03:33:08;15.93;;;6.93;;
23119;SDS011;11729;50.836;4.330;2022-11-09T03:35:35;19.60;;;7.25;;
23119;SDS011;11729;50.836;4.330;2022-11-09T03:38:01;18.15;;;6.90;;
23119;SDS011;11729;50.836;4.330;2022-11-09T03:40:29;18.90;;;7.28;;
23119;SDS011;11729;50.836;4.330;2022-11-09T03:42:55;16.95;;;7.35;;
23119;SDS011;11729;50.836;4.330;2022-11-09T03:45:23;15.10;;;6.25;;
23119;SDS011;11729;50.836;4.330;2022-11-09T03:47:49;20.98;;;7.22;;
23119;SDS011;11729;50.836;4.330;2022-11-09T03:50:15;14.68;;;6.45;;
23119;SDS011;11729;50.836;4.330;2022-11-09T03:52:46;15.30;;;6.57;;
23119;SDS011;11729;50.836;4.330;2022-11-09T03:55:12;18.30;;;7.32;;
23119;SDS011;11729;50.836;4.330;2022-11-09T03:57:39;16.05;;;6.40;;
23119;SDS011;11729;50.836;4.330;2022-11-09T04:00:05;21.13;;;7.35;;
23119;SDS011;11729;50.836;4.330;2022-11-09T04:02:31;21.02;;;7.57;;
23119;SDS011;11729;50.836;4.330;2022-11-09T04:04:57;17.10;;;7.20;;
23119;SDS011;11729;50.836;4.330;2022-11-09T04:07:23;18.17;;;6.53;;
23119;SDS011;11729;50.836;4.330;2022-11-09T04:09:48;21.83;;;7.45;;
23119;SDS011;11729;50.836;4.330;2022-11-09T04:12:14;20.08;;;7.13;;
23119;SDS011;11729;50.836;4.330;2022-11-09T04:14:39;22.73;;;7.60;;
23119;SDS011;11729;50.836;4.330;2022-11-09T04:17:06;18.05;;;7.35;;
23119;SDS011;11729;50.836;4.330;2022-11-09T04:19:31;19.38;;;7.22;;
23119;SDS011;11729;50.836;4.330;2022-11-09T04:21:57;19.02;;;6.88;;
23119;SDS011;11729;50.836;4.330;2022-11-09T04:24:22;15.50;;;6.95;;
23119;SDS011;11729;50.836;4.330;2022-11-09T04:26:48;18.73;;;6.75;;
23119;SDS011;11729;50.836;4.330;2022-11-09T04:29:14;17.75;;;6.55;;
23119;SDS011;11729;50.836;4.330;2022-11-09T04:31:39;19.13;;;6.97;;
23119;SDS011;11729;50.836;4.330;2022-11-09T04:34:05;20.55;;;7.43;;
23119;SDS011;11729;50.836;4.330;2022-11-09T04:36:30;14.75;;;6.70;;
23119;SDS011;11729;50.836;4.330;2022-11-09T04:38:56;19.23;;;6.72;;
23119;SDS011;11729;50.836;4.330;2022-11-09T04:41:23;18.05;;;7.57;;
23119;SDS011;11729;50.836;4.330;2022-11-09T04:43:49;19.10;;;6.57;;
23119;SDS011;11729;50.836;4.330;2022-11-09T04:46:14;18.15;;;6.82;;
23119;SDS011;11729;50.836;4.330;2022-11-09T04:48:40;13.25;;;6.28;;
23119;SDS011;11729;50.836;4.330;2022-11-09T04:51:06;14.40;;;6.55;;
23119;SDS011;11729;50.836;4.330;2022-11-09T04:53:37;20.38;;;6.82;;
23119;SDS011;11729;50.836;4.330;2022-11-09T04:56:03;12.68;;;6.20;;
23119;SDS011;11729;50.836;4.330;2022-11-09T04:58:29;16.70;;;6.18;;
23119;SDS011;11729;50.836;4.330;2022-11-09T05:01:00;13.90;;;6.43;;
23119;SDS011;11729;50.836;4.330;2022-11-09T05:03:28;13.27;;;6.28;;
23119;SDS011;11729;50.836;4.330;2022-11-09T05:05:53;11.77;;;6.20;;
23119;SDS011;11729;50.836;4.330;2022-11-09T05:08:19;19.38;;;6.78;;
23119;SDS011;11729;50.836;4.330;2022-11-09T05:10:44;14.13;;;6.60;;
23119;SDS011;11729;50.836;4.330;2022-11-09T05:13:10;12.93;;;6.25;;
23119;SDS011;11729;50.836;4.330;2022-11-09T05:15:37;18.00;;;6.40;;
23119;SDS011;11729;50.836;4.330;2022-11-09T05:18:03;13.40;;;6.50;;
23119;SDS011;11729;50.836;4.330;2022-11-09T05:20:31;14.30;;;7.25;;
23119;SDS011;11729;50.836;4.330;2022-11-09T05:22:57;14.18;;;6.20;;
23119;SDS011;11729;50.836;4.330;2022-11-09T05:25:42;15.55;;;6.57;;
23119;SDS011;11729;50.836;4.330;2022-11-09T05:28:08;14.05;;;6.20;;
23119;SDS011;11729;50.836;4.330;2022-11-09T05:30:34;18.33;;;6.35;;
23119;SDS011;11729;50.836;4.330;2022-11-09T05:33:00;18.10;;;6.43;;
23119;SDS011;11729;50.836;4.330;2022-11-09T05:35:25;20.05;;;7.07;;
23119;SDS011;11729;50.836;4.330;2022-11-09T05:37:51;11.18;;;6.50;;
23119;SDS011;11729;50.836;4.330;2022-11-09T05:40:17;15.20;;;6.38;;
23119;SDS011;11729;50.836;4.330;2022-11-09T05:42:44;14.70;;;6.78;;
23119;SDS011;11729;50.836;4.330;2022-11-09T05:45:11;16.80;;;7.38;;
23119;SDS011;11729;50.836;4.330;2022-11-09T05:47:39;17.27;;;8.00;;
23119;SDS011;11729;50.836;4.330;2022-11-09T05:50:08;14.85;;;7.30;;
23119;SDS011;11729;50.836;4.330;2022-11-09T05:52:36;14.40;;;7.32;;
23119;SDS011;11729;50.836;4.330;2022-11-09T05:55:02;14.25;;;7.60;;
23119;SDS011;11729;50.836;4.330;2022-11-09T05:57:28;18.02;;;7.57;;
23119;SDS011;11729;50.836;4.330;2022-11-09T05:59:54;19.70;;;7.75;;
23119;SDS011;11729;50.836;4.330;2022-11-09T06:02:20;16.60;;;7.45;;
23119;SDS011;11729;50.836;4.330;2022-11-09T06:04:45;18.67;;;7.85;;
23119;SDS011;11729;50.836;4.330;2022-11-09T06:07:11;20.63;;;7.95;;
23119;SDS011;11729;50.836;4.330;2022-11-09T06:09:37;19.20;;;7.80;;
23119;SDS011;11729;50.836;4.330;2022-11-09T06:12:02;27.70;;;11.07;;
23119;SDS011;11729;50.836;4.330;2022-11-09T06:14:28;27.20;;;10.65;;
23119;SDS011;11729;50.836;4.330;2022-11-09T06:16:54;19.60;;;8.27;;
23119;SDS011;11729;50.836;4.330;2022-11-09T06:19:19;17.08;;;9.73;;
23119;SDS011;11729;50.836;4.330;2022-11-09T06:21:45;30.02;;;14.77;;
23119;SDS011;11729;50.836;4.330;2022-11-09T06:24:10;34.97;;;17.55;;
23119;SDS011;11729;50.836;4.330;2022-11-09T06:26:36;34.25;;;18.65;;
23119;SDS011;11729;50.836;4.330;2022-11-09T06:29:02;23.45;;;11.07;;
23119;SDS011;11729;50.836;4.330;2022-11-09T06:31:28;19.38;;;9.18;;
23119;SDS011;11729;50.836;4.330;2022-11-09T06:33:53;24.13;;;8.50;;
23119;SDS011;11729;50.836;4.330;2022-11-09T06:36:19;21.33;;;7.90;;
23119;SDS011;11729;50.836;4.330;2022-11-09T06:38:48;20.80;;;8.38;;
23119;SDS011;11729;50.836;4.330;2022-11-09T06:41:16;21.02;;;8.85;;
23119;SDS011;11729;50.836;4.330;2022-11-09T06:43:43;30.45;;;8.40;;
23119;SDS011;11729;50.836;4.330;2022-11-09T06:46:09;19.23;;;8.23;;
23119;SDS011;11729;50.836;4.330;2022-11-09T06:48:38;19.90;;;6.93;;
23119;SDS011;11729;50.836;4.330;2022-11-09T06:51:04;27.23;;;9.80;;
23119;SDS011;11729;50.836;4.330;2022-11-09T06:53:31;23.45;;;8.82;;
23119;SDS011;11729;50.836;4.330;2022-11-09T06:55:58;21.38;;;6.95;;
23119;SDS011;11729;50.836;4.330;2022-11-09T06:58:25;17.90;;;7.43;;
23119;SDS011;11729;50.836;4.330;2022-11-09T07:00:51;20.42;;;7.45;;
23119;SDS011;11729;50.836;4.330;2022-11-09T07:03:17;22.83;;;8.32;;
23119;SDS011;11729;50.836;4.330;2022-11-09T07:05:43;18.10;;;7.68;;
23119;SDS011;11729;50.836;4.330;2022-11-09T07:08:10;22.15;;;7.28;;
23119;SDS011;11729;50.836;4.330;2022-11-09T07:10:36;19.85;;;6.88;;
23119;SDS011;11729;50.836;4.330;2022-11-09T07:13:01;19.52;;;6.78;;
23119;SDS011;11729;50.836;4.330;2022-11-09T07:15:27;14.20;;;6.72;;
23119;SDS011;11729;50.836;4.330;2022-11-09T07:17:57;17.55;;;7.32;;
23119;SDS011;11729;50.836;4.330;2022-11-09T07:20:24;19.33;;;7.20;;
23119;SDS011;11729;50.836;4.330;2022-11-09T07:22:50;15.10;;;6.97;;
23119;SDS011;11729;50.836;4.330;2022-11-09T07:25:16;17.90;;;7.30;;
23119;SDS011;11729;50.836;4.330;2022-11-09T07:27:42;16.65;;;7.47;;
23119;SDS011;11729;50.836;4.330;2022-11-09T07:30:08;18.33;;;7.47;;
23119;SDS011;11729;50.836;4.330;2022-11-09T07:32:35;15.48;;;7.05;;
23119;SDS011;11729;50.836;4.330;2022-11-09T07:35:04;24.20;;;7.27;;
23119;SDS011;11729;50.836;4.330;2022-11-09T07:37:31;20.67;;;7.03;;
23119;SDS011;11729;50.836;4.330;2022-11-09T07:39:57;18.77;;;6.95;;
23119;SDS011;11729;50.836;4.330;2022-11-09T07:42:23;22.10;;;7.82;;
23119;SDS011;11729;50.836;4.330;2022-11-09T07:44:49;21.45;;;7.47;;
23119;SDS011;11729;50.836;4.330;2022-11-09T07:47:15;16.25;;;7.35;;
23119;SDS011;11729;50.836;4.330;2022-11-09T07:49:42;20.25;;;7.32;;
23119;SDS011;11729;50.836;4.330;2022-11-09T07:52:07;20.73;;;7.15;;
23119;SDS011;11729;50.836;4.330;2022-11-09T07:54:33;19.27;;;7.10;;
23119;SDS011;11729;50.836;4.330;2022-11-09T07:56:59;19.85;;;7.10;;
23119;SDS011;11729;50.836;4.330;2022-11-09T07:59:25;23.08;;;7.20;;
23119;SDS011;11729;50.836;4.330;2022-11-09T08:01:51;15.98;;;7.03;;
23119;SDS011;11729;50.836;4.330;2022-11-09T08:04:16;15.80;;;6.68;;
23119;SDS011;11729;50.836;4.330;2022-11-09T08:06:42;16.58;;;7.00;;
23119;SDS011;11729;50.836;4.330;2022-11-09T08:09:07;16.60;;;6.93;;
23119;SDS011;11729;50.836;4.330;2022-11-09T08:11:33;16.90;;;6.75;;
23119;SDS011;11729;50.836;4.330;2022-11-09T08:13:59;19.42;;;7.70;;
23119;SDS011;11729;50.836;4.330;2022-11-09T08:16:24;16.95;;;6.63;;
23119;SDS011;11729;50.836;4.330;2022-11-09T08:18:51;19.92;;;7.70;;
23119;SDS011;11729;50.836;4.330;2022-11-09T08:21:17;15.10;;;7.40;;
23119;SDS011;11729;50.836;4.330;2022-11-09T08:23:43;13.55;;;6.20;;
23119;SDS011;11729;50.836;4.330;2022-11-09T08:26:09;23.98;;;6.65;;
23119;SDS011;11729;50.836;4.330;2022-11-09T08:28:35;16.38;;;6.75;;
23119;SDS011;11729;50.836;4.330;2022-11-09T08:31:03;18.95;;;6.90;;
23119;SDS011;11729;50.836;4.330;2022-11-09T08:33:33;15.18;;;6.43;;
23119;SDS011;11729;50.836;4.330;2022-11-09T08:36:01;17.85;;;6.88;;
23119;SDS011;11729;50.836;4.330;2022-11-09T08:38:36;16.30;;;6.60;;
23119;SDS011;11729;50.836;4.330;2022-11-09T08:41:01;20.35;;;6.25;;
23119;SDS011;11729;50.836;4.330;2022-11-09T08:43:27;17.98;;;7.30;;
23119;SDS011;11729;50.836;4.330;2022-11-09T08:45:53;16.65;;;6.85;;
23119;SDS011;11729;50.836;4.330;2022-11-09T08:48:19;11.45;;;6.43;;
23119;SDS011;11729;50.836;4.330;2022-11-09T08:50:45;16.33;;;6.78;;
23119;SDS011;11729;50.836;4.330;2022-11-09T08:53:15;21.42;;;6.72;;
23119;SDS011;11729;50.836;4.330;2022-11-09T08:55:40;17.10;;;7.10;;
23119;SDS011;11729;50.836;4.330;2022-11-09T08:58:06;14.00;;;6.93;;
23119;SDS011;11729;50.836;4.330;2022-11-09T09:00:32;19.30;;;6.40;;
23119;SDS011;11729;50.836;4.330;2022-11-09T09:02:57;14.45;;;5.88;;
23119;SDS011;11729;50.836;4.330;2022-11-09T09:05:27;18.40;;;6.40;;
23119;SDS011;11729;50.836;4.330;2022-11-09T09:07:53;18.55;;;6.30;;
23119;SDS011;11729;50.836;4.330;2022-11-09T09:10:18;12.52;;;6.13;;
23119;SDS011;11729;50.836;4.330;2022-11-09T09:12:44;13.10;;;6.18;;
23119;SDS011;11729;50.836;4.330;2022-11-09T09:15:10;14.77;;;6.28;;
23119;SDS011;11729;50.836;4.330;2022-11-09T09:17:35;14.70;;;6.22;;
23119;SDS011;11729;50.836;4.330;2022-11-09T09:20:01;18.13;;;7.10;;
23119;SDS011;11729;50.836;4.330;2022-11-09T09:22:29;19.50;;;7.95;;
23119;SDS011;11729;50.836;4.330;2022-11-09T09:24:56;20.08;;;8.73;;
23119;SDS011;11729;50.836;4.330;2022-11-09T09:27:21;18.15;;;7.22;;
23119;SDS011;11729;50.836;4.330;2022-11-09T09:29:47;16.63;;;6.97;;
23119;SDS011;11729;50.836;4.330;2022-11-09T09:32:13;21.23;;;7.80;;
23119;SDS011;11729;50.836;4.330;2022-11-09T09:34:38;16.20;;;7.72;;
23119;SDS011;11729;50.836;4.330;2022-11-09T09:37:04;12.48;;;6.97;;
23119;SDS011;11729;50.836;4.330;2022-11-09T09:39:29;15.32;;;7.07;;
23119;SDS011;11729;50.836;4.330;2022-11-09T09:41:56;16.83;;;7.13;;
23119;SDS011;11729;50.836;4.330;2022-11-09T09:47:10;19.40;;;6.95;;
23119;SDS011;11729;50.836;4.330;2022-11-09T09:49:51;16.83;;;7.07;;
23119;SDS011;11729;50.836;4.330;2022-11-09T09:55:07;12.25;;;5.85;;
23119;SDS011;11729;50.836;4.330;2022-11-09T09:57:42;18.85;;;6.82;;
23119;SDS011;11729;50.836;4.330;2022-11-09T10:00:22;10.02;;;5.88;;
23119;SDS011;11729;50.836;4.330;2022-11-09T10:02:50;14.18;;;6.80;;
23119;SDS011;11729;50.836;4.330;2022-11-09T10:05:16;16.75;;;6.22;;
23119;SDS011;11729;50.836;4.330;2022-11-09T10:15:28;12.52;;;6.22;;
23119;SDS011;11729;50.836;4.330;2022-11-09T10:18:01;15.45;;;6.50;;
23119;SDS011;11729;50.836;4.330;2022-11-09T10:24:15;12.80;;;6.43;;
23119;SDS011;11729;50.836;4.330;2022-11-09T10:26:51;17.02;;;6.38;;
23119;SDS011;11729;50.836;4.330;2022-11-09T10:29:24;17.85;;;6.18;;
23119;SDS011;11729;50.836;4.330;2022-11-09T10:32:11;14.25;;;6.32;;
23119;SDS011;11729;50.836;4.330;2022-11-09T10:37:43;12.77;;;6.05;;
23119;SDS011;11729;50.836;4.330;2022-11-09T10:42:36;18.58;;;6.10;;
23119;SDS011;11729;50.836;4.330;2022-11-09T10:45:12;15.35;;;6.13;;
23119;SDS011;11729;50.836;4.330;2022-11-09T10:47:57;14.90;;;6.50;;
23119;SDS011;11729;50.836;4.330;2022-11-09T10:53:11;14.43;;;6.80;;
23119;SDS011;11729;50.836;4.330;2022-11-09T10:58:37;16.80;;;7.05;;
23119;SDS011;11729;50.836;4.330;2022-11-09T11:01:14;12.10;;;6.10;;
23119;SDS011;11729;50.836;4.330;2022-11-09T11:04:09;20.02;;;6.70;;
23119;SDS011;11729;50.836;4.330;2022-11-09T11:06:43;18.48;;;6.75;;
23119;SDS011;11729;50.836;4.330;2022-11-09T11:11:35;14.73;;;6.00;;
23119;SDS011;11729;50.836;4.330;2022-11-09T11:16:45;15.82;;;6.10;;
23119;SDS011;11729;50.836;4.330;2022-11-09T11:24:53;16.67;;;5.70;;
23119;SDS011;11729;50.836;4.330;2022-11-09T11:32:53;20.27;;;6.93;;
23119;SDS011;11729;50.836;4.330;2022-11-09T11:47:21;18.55;;;7.10;;
23119;SDS011;11729;50.836;4.330;2022-11-09T11:55:16;18.55;;;8.13;;
23119;SDS011;11729;50.836;4.330;2022-11-09T12:00:27;16.15;;;6.30;;
23119;SDS011;11729;50.836;4.330;2022-11-09T12:06:20;10.68;;;6.13;;
23119;SDS011;11729;50.836;4.330;2022-11-09T12:09:14;10.48;;;6.22;;
23119;SDS011;11729;50.836;4.330;2022-11-09T12:17:26;6.20;;;5.22;;
23119;SDS011;11729;50.836;4.330;2022-11-09T12:20:20;7.70;;;5.00;;
23119;SDS011;11729;50.836;4.330;2022-11-09T12:33:47;9.30;;;5.10;;
23119;SDS011;11729;50.836;4.330;2022-11-09T12:36:26;10.40;;;5.35;;
23119;SDS011;11729;50.836;4.330;2022-11-09T12:39:18;9.70;;;5.18;;
23119;SDS011;11729;50.836;4.330;2022-11-09T12:41:51;14.68;;;5.50;;
23119;SDS011;11729;50.836;4.330;2022-11-09T12:44:26;9.10;;;5.28;;
23119;SDS011;11729;50.836;4.330;2022-11-09T12:47:01;12.80;;;5.57;;
23119;SDS011;11729;50.836;4.330;2022-11-09T12:52:06;12.18;;;5.88;;
23119;SDS011;11729;50.836;4.330;2022-11-09T12:54:38;10.80;;;5.13;;
23119;SDS011;11729;50.836;4.330;2022-11-09T12:57:09;9.48;;;5.65;;
23119;SDS011;11729;50.836;4.330;2022-11-09T12:59:52;12.32;;;4.90;;
23119;SDS011;11729;50.836;4.330;2022-11-09T13:02:21;8.80;;;4.95;;
23119;SDS011;11729;50.836;4.330;2022-11-09T13:05:00;9.57;;;5.00;;
23119;SDS011;11729;50.836;4.330;2022-11-09T13:07:43;6.78;;;4.82;;
23119;SDS011;11729;50.836;4.330;2022-11-09T13:10:22;18.40;;;5.30;;
23119;SDS011;11729;50.836;4.330;2022-11-09T13:13:00;7.18;;;4.90;;
23119;SDS011;11729;50.836;4.330;2022-11-09T13:15:28;10.68;;;4.95;;
23119;SDS011;11729;50.836;4.330;2022-11-09T13:17:58;13.52;;;5.82;;
23119;SDS011;11729;50.836;4.330;2022-11-09T13:23:00;15.00;;;6.22;;
23119;SDS011;11729;50.836;4.330;2022-11-09T13:30:55;13.75;;;5.82;;
23119;SDS011;11729;50.836;4.330;2022-11-09T13:33:30;11.93;;;6.07;;
23119;SDS011;11729;50.836;4.330;2022-11-09T13:38:32;11.48;;;5.43;;
23119;SDS011;11729;50.836;4.330;2022-11-09T13:41:02;14.57;;;6.35;;
23119;SDS011;11729;50.836;4.330;2022-11-09T13:43:48;13.48;;;5.68;;
23119;SDS011;11729;50.836;4.330;2022-11-09T13:46:50;13.60;;;5.85;;
23119;SDS011;11729;50.836;4.330;2022-11-09T13:52:01;16.50;;;6.05;;
23119;SDS011;11729;50.836;4.330;2022-11-09T13:54:31;12.02;;;6.15;;
23119;SDS011;11729;50.836;4.330;2022-11-09T13:57:03;13.43;;;6.18;;
23119;SDS011;11729;50.836;4.330;2022-11-09T13:59:31;13.93;;;5.60;;
23119;SDS011;11729;50.836;4.330;2022-11-09T14:01:58;14.15;;;5.80;;
23119;SDS011;11729;50.836;4.330;2022-11-09T14:04:26;14.38;;;5.70;;
23119;SDS011;11729;50.836;4.330;2022-11-09T14:07:04;14.27;;;5.38;;
23119;SDS011;11729;50.836;4.330;2022-11-09T14:12:18;18.73;;;6.00;;
23119;SDS011;11729;50.836;4.330;2022-11-09T14:15:05;9.25;;;5.60;;
23119;SDS011;11729;50.836;4.330;2022-11-09T14:22:49;13.73;;;6.13;;
23119;SDS011;11729;50.836;4.330;2022-11-09T14:25:16;12.80;;;5.75;;
23119;SDS011;11729;50.836;4.330;2022-11-09T14:30:28;14.25;;;6.00;;
23119;SDS011;11729;50.836;4.330;2022-11-09T14:32:56;16.77;;;5.72;;
23119;SDS011;11729;50.836;4.330;2022-11-09T14:37:51;8.07;;;5.68;;
23119;SDS011;11729;50.836;4.330;2022-11-09T14:40:27;10.57;;;5.63;;
23119;SDS011;11729;50.836;4.330;2022-11-09T14:42:57;10.45;;;6.10;;
23119;SDS011;11729;50.836;4.330;2022-11-09T14:45:47;13.95;;;6.00;;
23119;SDS011;11729;50.836;4.330;2022-11-09T14:48:16;8.00;;;5.57;;
23119;SDS011;11729;50.836;4.330;2022-11-09T14:50:43;10.75;;;5.60;;
23119;SDS011;11729;50.836;4.330;2022-11-09T14:53:28;14.00;;;5.85;;
23119;SDS011;11729;50.836;4.330;2022-11-09T14:55:54;7.60;;;5.88;;
23119;SDS011;11729;50.836;4.330;2022-11-09T14:58:24;14.68;;;6.75;;
23119;SDS011;11729;50.836;4.330;2022-11-09T15:01:06;12.63;;;5.90;;
23119;SDS011;11729;50.836;4.330;2022-11-09T15:03:41;10.55;;;6.20;;
23119;SDS011;11729;50.836;4.330;2022-11-09T15:06:09;12.60;;;6.00;;
23119;SDS011;11729;50.836;4.330;2022-11-09T15:08:45;10.82;;;6.32;;
23119;SDS011;11729;50.836;4.330;2022-11-09T15:11:20;15.38;;;6.90;;
23119;SDS011;11729;50.836;4.330;2022-11-09T15:13:55;11.20;;;6.70;;
23119;SDS011;11729;50.836;4.330;2022-11-09T15:16:22;8.85;;;6.03;;
23119;SDS011;11729;50.836;4.330;2022-11-09T15:18:50;12.20;;;6.40;;
23119;SDS011;11729;50.836;4.330;2022-11-09T15:24:13;8.10;;;6.00;;
23119;SDS011;11729;50.836;4.330;2022-11-09T15:26:43;11.68;;;6.40;;
23119;SDS011;11729;50.836;4.330;2022-11-09T15:34:36;15.75;;;6.30;;
23119;SDS011;11729;50.836;4.330;2022-11-09T15:37:19;17.80;;;6.30;;
23119;SDS011;11729;50.836;4.330;2022-11-09T15:40:05;15.70;;;6.45;;
23119;SDS011;11729;50.836;4.330;2022-11-09T15:42:36;12.38;;;6.30;;
23119;SDS011;11729;50.836;4.330;2022-11-09T15:45:02;15.38;;;6.30;;
23119;SDS011;11729;50.836;4.330;2022-11-09T15:47:32;14.93;;;7.35;;
23119;SDS011;11729;50.836;4.330;2022-11-09T15:50:02;11.88;;;7.20;;
23119;SDS011;11729;50.836;4.330;2022-11-09T15:52:31;14.85;;;6.50;;
23119;SDS011;11729;50.836;4.330;2022-11-09T15:54:56;14.70;;;6.47;;
23119;SDS011;11729;50.836;4.330;2022-11-09T15:57:22;24.80;;;13.25;;
23119;SDS011;11729;50.836;4.330;2022-11-09T15:59:48;18.70;;;9.18;;
23119;SDS011;11729;50.836;4.330;2022-11-09T16:02:15;14.57;;;7.00;;
23119;SDS011;11729;50.836;4.330;2022-11-09T16:04:43;19.27;;;7.10;;
23119;SDS011;11729;50.836;4.330;2022-11-09T16:07:12;14.80;;;6.97;;
23119;SDS011;11729;50.836;4.330;2022-11-09T16:09:38;14.18;;;6.18;;
23119;SDS011;11729;50.836;4.330;2022-11-09T16:12:05;12.88;;;6.30;;
23119;SDS011;11729;50.836;4.330;2022-11-09T16:14:31;15.60;;;6.75;;
23119;SDS011;11729;50.836;4.330;2022-11-09T16:16:57;13.55;;;6.93;;
23119;SDS011;11729;50.836;4.330;2022-11-09T16:19:23;15.32;;;6.55;;
23119;SDS011;11729;50.836;4.330;2022-11-09T16:21:52;11.38;;;6.20;;
23119;SDS011;11729;50.836;4.330;2022-11-09T16:24:18;14.27;;;6.53;;
23119;SDS011;11729;50.836;4.330;2022-11-09T16:26:44;16.25;;;7.38;;
23119;SDS011;11729;50.836;4.330;2022-11-09T16:29:10;18.55;;;6.85;;
23119;SDS011;11729;50.836;4.330;2022-11-09T16:31:36;18.25;;;6.40;;
23119;SDS011;11729;50.836;4.330;2022-11-09T16:34:02;14.88;;;7.00;;
23119;SDS011;11729;50.836;4.330;2022-11-09T16:36:28;14.95;;;6.40;;
23119;SDS011;11729;50.836;4.330;2022-11-09T16:38:55;11.25;;;6.30;;
23119;SDS011;11729;50.836;4.330;2022-11-09T16:41:21;15.30;;;6.53;;
23119;SDS011;11729;50.836;4.330;2022-11-09T16:43:49;17.85;;;7.13;;
23119;SDS011;11729;50.836;4.330;2022-11-09T16:46:19;12.40;;;6.57;;
23119;SDS011;11729;50.836;4.330;2022-11-09T16:48:48;13.88;;;6.68;;
23119;SDS011;11729;50.836;4.330;2022-11-09T16:51:14;13.57;;;6.47;;
23119;SDS011;11729;50.836;4.330;2022-11-09T16:53:39;10.55;;;5.85;;
23119;SDS011;11729;50.836;4.330;2022-11-09T16:56:05;13.13;;;6.50;;
23119;SDS011;11729;50.836;4.330;2022-11-09T16:58:32;14.60;;;6.45;;